Time;durP1;ratioP1;P1;durP2;ratioP2;P2;SDS_P1;SDS_P2;PMS_P1;PMS_P2;Temp;Humidity;BMP_temperature;BMP_pressure;BME280_temperature;BME280_humidity;BME280_pressure;Samples;Min_cycle;Max_cycle;Signal;HPM_P1;HPM_P2
2022/11/24 00:01:26;;;;;;;17.45;4.93;;;6.60;99.90;;;;;;5108652;28;20090;-68
2022/11/24 00:04:00;;;;;;;23.08;5.68;;;6.50;99.90;;;;;;5108672;28;20027;-69
2022/11/24 00:06:27;;;;;;;16.73;4.93;;;6.50;99.90;;;;;;5096151;28;20030;-68
2022/11/24 00:08:54;;;;;;;15.15;5.07;;;6.50;99.90;;;;;;5100036;28;20563;-70
2022/11/24 00:11:22;;;;;;;16.27;4.95;;;6.50;99.90;;;;;;5109074;28;20024;-69
2022/11/24 00:13:49;;;;;;;18.65;5.45;;;6.40;99.90;;;;;;5108843;28;20031;-69
2022/11/24 00:16:20;;;;;;;14.18;5.15;;;6.40;99.90;;;;;;5108988;28;20039;-67
2022/11/24 00:18:47;;;;;;;14.80;4.88;;;6.40;99.90;;;;;;5108867;28;20798;-68
2022/11/24 00:21:14;;;;;;;12.50;4.80;;;6.40;99.90;;;;;;5108553;28;20858;-68
2022/11/24 00:23:40;;;;;;;15.85;4.80;;;6.40;99.90;;;;;;5098348;28;20473;-69
2022/11/24 00:26:17;;;;;;;9.88;4.85;;;6.30;99.90;;;;;;5088632;28;20029;-68
2022/11/24 00:28:44;;;;;;;12.82;5.15;;;6.30;99.90;;;;;;5088743;28;20063;-70
2022/11/24 00:31:28;;;;;;;18.20;4.68;;;6.20;99.90;;;;;;5108353;28;20044;-68
2022/11/24 00:33:57;;;;;;;13.50;5.10;;;6.20;99.90;;;;;;5108505;28;20096;-69
2022/11/24 00:36:25;;;;;;;15.90;4.72;;;6.20;99.90;;;;;;5109287;28;20072;-68
2022/11/24 00:38:58;;;;;;;15.43;5.25;;;6.10;99.90;;;;;;5109235;28;20054;-68
2022/11/24 00:41:27;;;;;;;15.30;5.40;;;6.10;99.90;;;;;;5108525;28;20093;-67
2022/11/24 00:43:53;;;;;;;22.33;5.65;;;6.10;99.90;;;;;;5108919;28;20042;-70
2022/11/24 00:46:21;;;;;;;12.98;5.47;;;6.00;99.90;;;;;;5109002;28;20020;-69
2022/11/24 00:48:46;;;;;;;19.05;5.93;;;6.00;99.90;;;;;;5104112;28;20027;-69
2022/11/24 00:51:15;;;;;;;16.33;5.35;;;6.00;99.90;;;;;;5105213;28;20046;-69
2022/11/24 00:53:42;;;;;;;18.83;5.82;;;6.00;99.90;;;;;;5105373;28;20051;-68
2022/11/24 00:56:08;;;;;;;16.95;5.30;;;6.00;99.90;;;;;;5104758;28;20032;-70
2022/11/24 00:58:34;;;;;;;18.60;6.18;;;6.00;99.90;;;;;;5105236;28;20040;-68
2022/11/24 01:01:02;;;;;;;17.55;5.65;;;5.90;99.90;;;;;;5105080;28;20044;-68
2022/11/24 01:03:28;;;;;;;14.13;5.38;;;5.90;99.90;;;;;;5105439;28;20020;-70
2022/11/24 01:05:54;;;;;;;13.75;5.40;;;5.90;99.90;;;;;;5104946;28;20012;-70
2022/11/24 01:08:23;;;;;;;24.65;6.32;;;5.90;99.90;;;;;;5104972;28;20036;-70
2022/11/24 01:10:49;;;;;;;12.02;5.53;;;5.90;99.90;;;;;;5103566;28;20028;-70
2022/11/24 01:13:14;;;;;;;22.63;6.32;;;5.90;99.90;;;;;;5105569;28;20035;-68
2022/11/24 01:15:40;;;;;;;13.30;5.60;;;5.90;99.90;;;;;;5104822;28;20028;-70
2022/11/24 01:18:06;;;;;;;15.63;5.88;;;5.80;99.90;;;;;;5105000;28;20032;-70
2022/11/24 01:20:31;;;;;;;20.13;6.75;;;5.80;99.90;;;;;;5104933;28;20040;-67
2022/11/24 01:22:57;;;;;;;18.23;6.75;;;5.90;99.90;;;;;;5104293;28;20048;-69
2022/11/24 01:25:23;;;;;;;20.75;6.05;;;5.80;99.90;;;;;;5105022;28;20027;-69
2022/11/24 01:27:48;;;;;;;19.45;6.50;;;5.80;99.90;;;;;;5104415;28;20036;-67
2022/11/24 01:30:14;;;;;;;16.10;6.47;;;5.80;99.90;;;;;;5103968;28;20051;-68
2022/11/24 01:32:40;;;;;;;13.77;6.05;;;5.80;99.90;;;;;;5104194;28;20024;-67
2022/11/24 01:35:06;;;;;;;13.70;6.18;;;5.80;99.90;;;;;;5104885;28;20032;-68
2022/11/24 01:37:32;;;;;;;13.73;5.88;;;5.80;99.90;;;;;;5103515;28;20028;-68
2022/11/24 01:39:57;;;;;;;16.05;6.55;;;5.90;99.90;;;;;;5104744;28;20038;-68
2022/11/24 01:42:23;;;;;;;20.67;6.03;;;5.80;99.90;;;;;;5104931;28;20032;-69
2022/11/24 01:45:30;;;;;;;20.73;6.35;;;5.80;99.90;;;;;;5104171;28;20036;-68
2022/11/24 01:47:56;;;;;;;14.02;6.45;;;5.80;99.90;;;;;;5104182;28;20024;-70
2022/11/24 01:50:23;;;;;;;19.30;6.57;;;5.90;99.90;;;;;;5103461;28;20039;-68
2022/11/24 01:52:53;;;;;;;20.42;7.00;;;5.90;99.90;;;;;;5104658;28;20020;-69
2022/11/24 01:55:39;;;;;;;16.77;6.68;;;5.90;99.90;;;;;;5104228;28;20020;-68
2022/11/24 01:58:13;;;;;;;15.60;6.57;;;5.90;99.90;;;;;;5103678;28;20030;-69
2022/11/24 02:00:41;;;;;;;16.27;6.67;;;6.00;99.90;;;;;;5103882;28;20044;-69
2022/11/24 02:03:08;;;;;;;12.07;6.18;;;5.90;99.90;;;;;;5102742;28;20254;-67
2022/11/24 02:05:42;;;;;;;14.02;6.90;;;5.90;99.90;;;;;;5099482;28;20551;-69
2022/11/24 02:08:21;;;;;;;14.55;6.28;;;5.90;99.90;;;;;;5099502;28;20107;-69
2022/11/24 02:10:47;;;;;;;17.42;7.32;;;6.00;99.90;;;;;;5086655;28;20534;-69
2022/11/24 02:13:14;;;;;;;21.60;7.53;;;6.00;99.90;;;;;;5094680;28;20052;-68
2022/11/24 02:15:40;;;;;;;18.45;7.75;;;6.10;99.90;;;;;;5083177;28;20032;-69
2022/11/24 02:18:05;;;;;;;20.98;7.28;;;6.10;99.90;;;;;;5083595;28;20081;-69
2022/11/24 02:20:31;;;;;;;23.35;7.88;;;6.10;99.90;;;;;;5083414;28;20075;-71
2022/11/24 02:23:17;;;;;;;23.88;8.30;;;6.10;99.90;;;;;;5082759;28;20099;-68
2022/11/24 02:26:26;;;;;;;19.98;8.13;;;6.20;99.90;;;;;;5082866;28;20040;-69
2022/11/24 02:28:52;;;;;;;17.05;7.80;;;6.20;99.90;;;;;;5083739;28;20040;-71
2022/11/24 02:31:17;;;;;;;18.13;8.05;;;6.20;99.90;;;;;;5083568;28;20024;-69
2022/11/24 02:33:44;;;;;;;24.50;8.32;;;6.20;99.90;;;;;;5082642;28;20028;-70
2022/11/24 02:36:09;;;;;;;16.17;7.68;;;6.30;99.90;;;;;;5082784;28;20048;-71
2022/11/24 02:38:35;;;;;;;19.33;8.05;;;6.30;99.90;;;;;;5082979;28;20039;-70
2022/11/24 02:41:05;;;;;;;25.60;8.23;;;6.30;99.90;;;;;;5082842;28;20045;-70
2022/11/24 02:43:36;;;;;;;23.58;8.82;;;6.30;99.90;;;;;;5083179;28;20020;-70
2022/11/24 02:46:02;;;;;;;21.25;8.38;;;6.30;99.90;;;;;;5081390;28;20054;-68
2022/11/24 02:48:27;;;;;;;21.20;8.85;;;6.30;99.90;;;;;;5083229;28;20029;-69
2022/11/24 02:50:53;;;;;;;26.95;8.88;;;6.40;99.90;;;;;;5082290;28;20029;-71
2022/11/24 02:53:19;;;;;;;23.17;8.40;;;6.40;99.90;;;;;;5082489;28;20025;-70
2022/11/24 02:55:45;;;;;;;21.02;9.13;;;6.40;99.90;;;;;;5082844;28;20067;-68
2022/11/24 02:58:11;;;;;;;17.63;8.75;;;6.40;99.90;;;;;;5088149;28;20055;-70
2022/11/24 03:00:36;;;;;;;21.15;9.88;;;6.40;99.90;;;;;;5085211;28;20560;-69
2022/11/24 03:03:02;;;;;;;28.15;9.07;;;6.40;99.90;;;;;;5088949;28;20085;-68
2022/11/24 03:05:28;;;;;;;19.33;8.95;;;6.40;99.90;;;;;;5094646;28;20032;-70
2022/11/24 03:07:54;;;;;;;26.08;9.40;;;6.40;99.90;;;;;;5082756;28;20063;-69
2022/11/24 03:10:19;;;;;;;23.33;9.07;;;6.50;99.90;;;;;;5081413;28;20048;-69
2022/11/24 03:12:45;;;;;;;24.88;9.00;;;6.50;99.90;;;;;;5087702;28;20024;-69
2022/11/24 03:15:11;;;;;;;27.27;9.80;;;6.50;99.90;;;;;;5101948;28;20030;-70
2022/11/24 03:17:36;;;;;;;32.30;9.77;;;6.50;99.90;;;;;;5082032;28;20036;-70
2022/11/24 03:20:02;;;;;;;27.73;9.13;;;6.50;99.90;;;;;;5086510;28;20039;-68
2022/11/24 03:22:28;;;;;;;24.80;10.05;;;6.50;99.90;;;;;;5101298;28;20074;-68
2022/11/24 03:24:54;;;;;;;28.85;9.52;;;6.50;99.90;;;;;;5082982;28;20092;-70
2022/11/24 03:27:20;;;;;;;32.03;9.85;;;6.50;99.90;;;;;;5082562;28;20040;-69
2022/11/24 03:29:46;;;;;;;22.38;9.10;;;6.50;99.90;;;;;;5082432;28;20055;-70
2022/11/24 03:32:11;;;;;;;30.05;9.90;;;6.60;99.90;;;;;;5081905;28;20060;-69
2022/11/24 03:34:37;;;;;;;24.75;9.40;;;6.60;99.90;;;;;;5082261;28;20033;-69
2022/11/24 03:37:03;;;;;;;19.55;8.95;;;6.50;99.90;;;;;;5082075;28;20036;-67
2022/11/24 03:39:29;;;;;;;25.70;9.55;;;6.50;99.90;;;;;;5082767;28;20031;-69
2022/11/24 03:41:54;;;;;;;24.63;9.95;;;6.60;99.90;;;;;;5083812;28;20032;-70
2022/11/24 03:44:20;;;;;;;26.45;9.15;;;6.50;99.90;;;;;;5102591;28;20039;-70
2022/11/24 03:46:45;;;;;;;21.52;9.20;;;6.50;99.90;;;;;;5101957;28;20085;-69
2022/11/24 03:49:11;;;;;;;31.98;9.95;;;6.50;99.90;;;;;;5102586;28;20028;-69
2022/11/24 03:51:37;;;;;;;24.23;9.32;;;6.40;99.90;;;;;;5101935;28;20038;-69
2022/11/24 03:54:02;;;;;;;28.83;9.10;;;6.40;99.90;;;;;;5100833;28;20032;-69
2022/11/24 03:56:28;;;;;;;21.48;9.32;;;6.40;99.90;;;;;;5085272;28;20473;-69
2022/11/24 03:58:54;;;;;;;33.92;10.35;;;6.30;99.90;;;;;;5083485;28;20075;-70
2022/11/24 04:01:20;;;;;;;32.70;9.48;;;6.30;99.90;;;;;;5083255;28;20512;-70
2022/11/24 04:03:45;;;;;;;29.17;9.35;;;6.30;99.90;;;;;;5091486;28;20048;-69
2022/11/24 04:06:11;;;;;;;26.58;9.20;;;6.20;99.90;;;;;;5101445;28;20020;-69
2022/11/24 04:08:37;;;;;;;30.38;8.77;;;6.20;99.90;;;;;;5099369;28;20025;-70
2022/11/24 04:11:03;;;;;;;24.95;8.88;;;6.10;99.90;;;;;;5083311;28;20584;-70
2022/11/24 04:13:28;;;;;;;25.63;9.63;;;6.10;99.90;;;;;;5081262;28;20382;-69
2022/11/24 04:15:54;;;;;;;27.55;9.30;;;6.10;99.90;;;;;;5082345;28;20068;-70
2022/11/24 04:18:20;;;;;;;22.50;9.38;;;6.10;99.90;;;;;;5102060;28;20036;-69
2022/11/24 04:20:49;;;;;;;21.00;9.02;;;6.00;99.90;;;;;;5101781;28;20040;-69
2022/11/24 04:23:14;;;;;;;23.90;10.02;;;6.00;99.90;;;;;;5100609;28;20051;-70
2022/11/24 04:25:43;;;;;;;29.02;10.85;;;6.00;99.90;;;;;;5106305;28;20032;-68
2022/11/24 04:28:09;;;;;;;26.38;9.85;;;5.90;99.90;;;;;;5106904;28;20156;-70
2022/11/24 04:30:37;;;;;;;26.25;9.48;;;5.90;99.90;;;;;;5107465;28;20488;-70
2022/11/24 04:33:03;;;;;;;21.95;10.15;;;5.80;99.90;;;;;;5099464;28;20020;-70
2022/11/24 04:35:29;;;;;;;28.10;9.57;;;5.80;99.90;;;;;;5087300;28;20032;-69
2022/11/24 04:37:54;;;;;;;23.55;10.27;;;5.80;99.90;;;;;;5086410;28;20029;-71
2022/11/24 04:40:20;;;;;;;33.88;10.32;;;5.80;99.90;;;;;;5086715;28;20076;-70
2022/11/24 04:42:55;;;;;;;22.20;10.23;;;5.70;99.90;;;;;;5086831;28;20032;-71
2022/11/24 04:45:22;;;;;;;24.30;11.05;;;5.80;99.90;;;;;;5086124;28;20477;-72
2022/11/24 04:47:47;;;;;;;26.02;10.60;;;5.80;99.90;;;;;;5086342;28;20047;-70
2022/11/24 04:50:13;;;;;;;30.05;10.43;;;5.80;99.90;;;;;;5086683;28;20029;-70
2022/11/24 04:52:38;;;;;;;31.25;11.05;;;5.80;99.90;;;;;;5086473;28;20111;-69
2022/11/24 04:55:04;;;;;;;34.90;9.90;;;5.80;99.90;;;;;;5086349;28;20448;-69
2022/11/24 04:57:30;;;;;;;25.88;9.65;;;5.90;99.90;;;;;;5086084;28;20029;-69
2022/11/24 04:59:55;;;;;;;26.13;10.73;;;5.80;99.90;;;;;;5086321;28;20055;-69
2022/11/24 05:02:23;;;;;;;22.75;10.15;;;5.90;99.90;;;;;;5086495;28;20032;-69
2022/11/24 05:04:48;;;;;;;28.98;10.10;;;5.90;99.90;;;;;;5086680;28;20033;-69
2022/11/24 05:07:15;;;;;;;29.25;10.55;;;5.90;99.90;;;;;;5086060;28;20024;-70
2022/11/24 05:12:29;;;;;;;32.42;10.32;;;5.80;99.90;;;;;;5086210;28;20084;-69
2022/11/24 05:14:57;;;;;;;25.75;10.63;;;5.90;99.90;;;;;;5086504;28;20029;-70
2022/11/24 05:17:22;;;;;;;28.10;10.35;;;5.80;99.90;;;;;;5086482;28;20055;-71
2022/11/24 05:19:48;;;;;;;28.48;10.23;;;5.80;99.90;;;;;;5086204;28;21034;-69
2022/11/24 05:22:13;;;;;;;32.38;11.52;;;5.80;99.90;;;;;;5085695;28;20044;-69
2022/11/24 05:24:39;;;;;;;39.95;11.57;;;5.80;99.90;;;;;;5093923;28;20871;-70
2022/11/24 05:27:05;;;;;;;36.80;11.35;;;5.80;99.90;;;;;;5106091;28;20035;-69
2022/11/24 05:29:30;;;;;;;37.00;10.65;;;5.80;99.90;;;;;;5099976;28;20025;-68
2022/11/24 05:31:56;;;;;;;26.52;11.48;;;5.80;99.90;;;;;;5085843;28;20021;-70
2022/11/24 05:34:21;;;;;;;24.77;10.05;;;5.80;99.90;;;;;;5084941;28;20032;-69
2022/11/24 05:36:53;;;;;;;36.03;10.07;;;5.90;99.90;;;;;;5086369;28;20033;-68
2022/11/24 05:39:20;;;;;;;30.40;10.52;;;5.80;99.90;;;;;;5085585;28;20024;-68
2022/11/24 05:41:45;;;;;;;38.15;9.98;;;5.80;99.90;;;;;;5085032;28;20041;-70
2022/11/24 05:44:11;;;;;;;27.60;9.93;;;5.80;99.90;;;;;;5084797;28;20043;-68
2022/11/24 05:46:37;;;;;;;27.85;10.40;;;5.80;99.90;;;;;;5087721;28;20040;-68
2022/11/24 05:49:02;;;;;;;27.33;9.85;;;5.70;99.90;;;;;;5085529;28;20065;-70
2022/11/24 05:51:29;;;;;;;29.30;10.00;;;5.70;99.90;;;;;;5085854;28;20054;-70
2022/11/24 05:53:55;;;;;;;23.65;10.23;;;5.70;99.90;;;;;;5085312;28;20024;-68
2022/11/24 05:56:21;;;;;;;25.45;10.02;;;5.70;99.90;;;;;;5085615;28;20060;-70
2022/11/24 05:58:46;;;;;;;33.75;10.93;;;5.70;99.90;;;;;;5085733;28;20029;-69
2022/11/24 06:01:12;;;;;;;34.33;10.32;;;5.70;99.90;;;;;;5084557;28;20045;-70
2022/11/24 06:03:38;;;;;;;31.92;10.40;;;5.70;99.90;;;;;;5084902;28;20039;-69
2022/11/24 06:06:03;;;;;;;28.15;10.43;;;5.70;99.90;;;;;;5085537;28;20071;-69
2022/11/24 06:08:30;;;;;;;24.60;10.57;;;5.70;99.90;;;;;;5084893;28;20028;-69
2022/11/24 06:11:17;;;;;;;27.75;10.95;;;5.70;99.90;;;;;;5084949;28;20050;-70
2022/11/24 06:13:44;;;;;;;28.38;11.32;;;5.80;99.90;;;;;;5084385;28;20074;-69
2022/11/24 06:16:11;;;;;;;35.88;10.90;;;5.70;99.90;;;;;;5086412;28;20073;-70
2022/11/24 06:18:36;;;;;;;37.88;10.90;;;5.70;99.90;;;;;;5093919;28;20040;-69
2022/11/24 06:21:03;;;;;;;31.05;10.43;;;5.70;99.90;;;;;;5084155;28;20040;-69
2022/11/24 06:23:29;;;;;;;36.28;11.40;;;5.70;99.90;;;;;;5083165;28;20049;-70
2022/11/24 06:26:00;;;;;;;32.75;10.63;;;5.70;99.90;;;;;;5085361;28;20031;-69
2022/11/24 06:28:26;;;;;;;28.40;10.93;;;5.70;99.90;;;;;;5084791;28;20043;-70
2022/11/24 06:30:52;;;;;;;32.95;10.50;;;5.70;99.90;;;;;;5085896;28;20056;-71
2022/11/24 06:33:18;;;;;;;30.02;10.43;;;5.70;99.90;;;;;;5097347;28;20027;-72
2022/11/24 06:35:44;;;;;;;35.20;11.13;;;5.70;99.90;;;;;;5083550;28;20028;-70
2022/11/24 06:38:10;;;;;;;38.42;11.07;;;5.70;99.90;;;;;;5089229;28;20039;-69
2022/11/24 06:40:35;;;;;;;35.42;10.43;;;5.60;99.90;;;;;;5094495;28;20048;-69
2022/11/24 06:43:01;;;;;;;37.08;10.38;;;5.70;99.90;;;;;;5089923;28;20029;-70
2022/11/24 06:45:27;;;;;;;40.03;11.93;;;5.70;99.90;;;;;;5093648;28;20028;-71
2022/11/24 06:47:54;;;;;;;33.28;10.52;;;5.70;99.90;;;;;;5088966;28;20108;-70
2022/11/24 06:50:19;;;;;;;34.95;10.07;;;5.70;99.90;;;;;;5094031;28;20475;-70
2022/11/24 06:52:45;;;;;;;30.83;10.32;;;5.70;99.90;;;;;;5091330;28;20045;-69
2022/11/24 06:55:10;;;;;;;36.67;10.93;;;5.60;99.90;;;;;;5081805;28;20058;-70
2022/11/24 06:57:36;;;;;;;33.63;10.40;;;5.70;99.90;;;;;;5083628;28;20085;-69
2022/11/24 07:00:05;;;;;;;32.80;11.43;;;5.60;99.90;;;;;;5084039;28;20031;-72
2022/11/24 07:02:30;;;;;;;29.17;10.60;;;5.60;99.90;;;;;;5083780;28;20059;-71
2022/11/24 07:04:56;;;;;;;38.33;11.23;;;5.60;99.90;;;;;;5083656;28;20461;-72
2022/11/24 07:07:21;;;;;;;36.55;11.52;;;5.60;99.90;;;;;;5084149;28;20025;-70
2022/11/24 07:09:47;;;;;;;30.90;11.10;;;5.50;99.90;;;;;;5083950;28;20032;-71
2022/11/24 07:12:13;;;;;;;37.03;10.32;;;5.50;99.90;;;;;;5090745;28;20028;-71
2022/11/24 07:14:38;;;;;;;35.35;11.35;;;5.50;99.90;;;;;;5102333;28;20582;-72
2022/11/24 07:17:04;;;;;;;32.78;10.57;;;5.50;99.90;;;;;;5091455;28;20036;-71
2022/11/24 07:19:30;;;;;;;35.55;11.13;;;5.40;99.90;;;;;;5090975;28;20029;-71
2022/11/24 07:21:55;;;;;;;37.50;10.43;;;5.50;99.90;;;;;;5083308;28;20048;-72
2022/11/24 07:24:21;;;;;;;26.42;9.40;;;5.40;99.90;;;;;;5084169;28;20021;-71
2022/11/24 07:26:47;;;;;;;37.20;10.60;;;5.40;99.90;;;;;;5083511;28;20028;-72
2022/11/24 07:29:12;;;;;;;31.67;10.20;;;5.50;99.90;;;;;;5086969;28;20119;-73
2022/11/24 07:31:38;;;;;;;33.95;11.43;;;5.40;99.90;;;;;;5091720;28;20031;-71
2022/11/24 07:34:04;;;;;;;37.30;10.70;;;5.50;99.90;;;;;;5083944;28;20033;-69
2022/11/24 07:36:30;;;;;;;36.25;10.63;;;5.50;99.90;;;;;;5084008;28;20100;-72
2022/11/24 07:38:55;;;;;;;37.13;11.40;;;5.50;99.90;;;;;;5083574;28;20045;-71
2022/11/24 07:41:21;;;;;;;27.02;10.85;;;5.50;99.90;;;;;;5083338;28;20036;-71
2022/11/24 07:43:48;;;;;;;36.15;11.02;;;5.50;99.90;;;;;;5103881;28;20020;-70
2022/11/24 07:46:16;;;;;;;34.15;10.85;;;5.50;99.90;;;;;;5102783;28;20036;-69
2022/11/24 07:48:41;;;;;;;33.58;10.98;;;5.60;99.90;;;;;;5089501;28;20059;-69
2022/11/24 07:51:08;;;;;;;33.97;10.05;;;5.60;99.90;;;;;;5094272;28;20036;-72
2022/11/24 07:53:34;;;;;;;28.63;10.80;;;5.60;99.90;;;;;;5098937;28;20111;-71
2022/11/24 07:56:04;;;;;;;30.73;10.40;;;5.60;99.90;;;;;;5089946;28;20109;-70
2022/11/24 07:58:32;;;;;;;31.63;11.00;;;5.70;99.90;;;;;;5087279;28;20047;-70
2022/11/24 08:00:58;;;;;;;41.50;9.82;;;5.70;99.90;;;;;;5091269;28;20072;-73
2022/11/24 08:03:24;;;;;;;44.60;11.40;;;5.60;99.90;;;;;;5098925;28;20024;-70
2022/11/24 08:05:57;;;;;;;40.28;9.82;;;5.80;99.90;;;;;;5108425;28;20054;-73
2022/11/24 08:08:23;;;;;;;38.63;10.52;;;5.80;99.90;;;;;;5095277;28;20102;-71
2022/11/24 08:10:50;;;;;;;52.05;11.65;;;5.80;99.90;;;;;;5090435;28;20056;-70
2022/11/24 08:13:16;;;;;;;37.22;9.98;;;5.90;99.90;;;;;;5088547;28;20059;-71
2022/11/24 08:15:41;;;;;;;26.85;9.55;;;6.00;99.90;;;;;;5095167;28;20020;-69
2022/11/24 08:18:07;;;;;;;29.10;9.07;;;6.00;99.90;;;;;;5101017;28;20084;-69
2022/11/24 08:20:33;;;;;;;30.65;9.05;;;6.10;99.90;;;;;;5103014;28;20032;-69
2022/11/24 08:22:59;;;;;;;33.58;9.20;;;6.20;99.90;;;;;;5085711;28;20044;-70
2022/11/24 08:25:31;;;;;;;46.47;10.18;;;6.20;99.90;;;;;;5090751;28;20047;-71
2022/11/24 08:28:02;;;;;;;40.15;9.30;;;6.40;99.90;;;;;;5098468;28;20030;-69
2022/11/24 08:30:28;;;;;;;36.65;10.43;;;6.60;99.90;;;;;;5088923;28;20423;-70
2022/11/24 08:32:53;;;;;;;30.92;9.68;;;6.80;99.90;;;;;;5093146;28;20107;-70
2022/11/24 08:35:20;;;;;;;30.05;9.35;;;6.90;99.90;;;;;;5090382;28;20071;-70
2022/11/24 08:37:45;;;;;;;31.58;9.10;;;6.90;99.90;;;;;;5088239;28;20035;-70
2022/11/24 08:40:12;;;;;;;28.33;9.32;;;7.00;99.90;;;;;;5107334;28;20028;-73
2022/11/24 08:42:37;;;;;;;28.67;8.40;;;7.10;99.90;;;;;;5107157;28;20036;-70
2022/11/24 08:45:03;;;;;;;28.80;8.15;;;7.10;99.90;;;;;;5093506;28;20038;-70
2022/11/24 08:47:29;;;;;;;32.63;8.88;;;7.20;99.90;;;;;;5107293;28;20051;-70
2022/11/24 08:49:55;;;;;;;27.55;8.52;;;7.20;99.90;;;;;;5107067;28;20024;-71
2022/11/24 08:52:21;;;;;;;30.13;8.63;;;7.30;99.90;;;;;;5106579;28;20020;-71
2022/11/24 08:54:46;;;;;;;27.52;8.70;;;7.30;99.90;;;;;;5089360;28;20038;-70
2022/11/24 08:57:13;;;;;;;31.95;8.68;;;7.40;99.90;;;;;;5105540;28;20032;-71
2022/11/24 08:59:39;;;;;;;21.63;7.85;;;7.40;99.90;;;;;;5087866;28;20025;-70
2022/11/24 09:02:05;;;;;;;36.20;8.65;;;7.50;99.90;;;;;;5092790;28;20045;-70
2022/11/24 09:04:31;;;;;;;30.13;7.97;;;7.50;99.90;;;;;;5090737;28;20028;-72
2022/11/24 09:06:57;;;;;;;22.42;8.30;;;7.60;99.90;;;;;;5095982;28;20080;-71
2022/11/24 09:09:23;;;;;;;22.02;6.82;;;7.60;99.90;;;;;;5086117;28;20391;-71
2022/11/24 09:11:48;;;;;;;21.55;7.65;;;7.70;99.90;;;;;;5092762;28;20056;-71
2022/11/24 09:14:14;;;;;;;28.80;8.63;;;7.70;99.90;;;;;;5086474;28;20045;-70
2022/11/24 09:16:40;;;;;;;26.08;7.78;;;7.80;99.90;;;;;;5092409;28;20047;-73
2022/11/24 09:19:06;;;;;;;24.48;7.95;;;7.80;99.90;;;;;;5092868;28;20057;-69
2022/11/24 09:21:36;;;;;;;28.77;7.03;;;7.80;99.90;;;;;;5092629;28;20067;-71
2022/11/24 09:24:02;;;;;;;28.20;7.40;;;7.70;99.90;;;;;;5093978;28;20064;-71
2022/11/24 09:26:33;;;;;;;25.92;8.07;;;7.80;99.90;;;;;;5085379;28;20037;-71
2022/11/24 09:29:01;;;;;;;26.17;8.38;;;7.90;99.90;;;;;;5094620;28;20024;-72
2022/11/24 09:31:33;;;;;;;23.42;8.05;;;7.80;99.90;;;;;;5088207;28;20530;-72
2022/11/24 09:34:00;;;;;;;27.95;7.55;;;7.70;99.90;;;;;;5093486;28;20034;-71
2022/11/24 09:36:26;;;;;;;30.10;8.25;;;7.80;99.90;;;;;;5091478;28;20036;-72
2022/11/24 09:38:52;;;;;;;28.55;8.55;;;7.90;99.90;;;;;;5095442;28;20023;-72
2022/11/24 09:41:24;;;;;;;21.77;7.60;;;8.10;99.90;;;;;;5092758;28;20040;-71
2022/11/24 09:44:18;;;;;;;32.55;7.78;;;8.30;99.90;;;;;;5094087;28;20032;-70
2022/11/24 09:47:14;;;;;;;26.97;7.43;;;8.50;99.90;;;;;;5093524;28;20143;-71
2022/11/24 09:49:58;;;;;;;27.60;8.32;;;8.40;99.90;;;;;;5090108;28;20278;-71
2022/11/24 09:52:41;;;;;;;32.55;8.00;;;8.60;99.90;;;;;;5105766;28;20024;-72
2022/11/24 09:55:52;;;;;;;39.13;7.70;;;8.80;99.90;;;;;;5101316;28;20119;-72
2022/11/24 09:58:30;;;;;;;29.15;7.63;;;8.90;99.90;;;;;;5093101;28;20126;-71
2022/11/24 10:00:57;;;;;;;30.83;7.25;;;9.10;99.90;;;;;;5085484;28;20223;-71
2022/11/24 10:03:33;;;;;;;30.00;6.63;;;9.30;99.90;;;;;;5085886;28;20039;-70
2022/11/24 10:06:04;;;;;;;28.45;6.45;;;9.40;99.90;;;;;;5085415;28;20426;-70
2022/11/24 10:09:01;;;;;;;20.50;6.65;;;9.50;99.90;;;;;;5089900;28;20157;-72
2022/11/24 10:11:42;;;;;;;19.45;5.53;;;9.70;99.90;;;;;;5015400;28;20040;-72
2022/11/24 10:14:25;;;;;;;19.67;5.60;;;9.80;99.90;;;;;;5101609;28;20028;-70
2022/11/24 10:17:25;;;;;;;23.67;6.13;;;9.80;99.90;;;;;;5088511;28;20048;-71
2022/11/24 10:19:55;;;;;;;25.70;5.78;;;9.80;99.90;;;;;;5097800;28;20029;-70
2022/11/24 10:22:26;;;;;;;33.20;6.15;;;9.80;99.90;;;;;;5105189;28;20052;-69
2022/11/24 10:24:55;;;;;;;28.38;5.68;;;9.90;99.90;;;;;;5103406;28;20083;-70
2022/11/24 10:27:32;;;;;;;24.55;5.38;;;9.90;99.90;;;;;;5097509;28;20059;-71
2022/11/24 10:29:59;;;;;;;31.15;5.93;;;10.00;99.90;;;;;;5084997;28;20036;-70
2022/11/24 10:32:35;;;;;;;28.33;6.28;;;10.10;99.90;;;;;;5087886;28;20038;-70
2022/11/24 10:35:23;;;;;;;15.85;4.97;;;10.10;99.90;;;;;;5095267;28;20036;-69
2022/11/24 10:38:05;;;;;;;25.88;6.05;;;10.20;99.90;;;;;;5092209;28;20032;-72
2022/11/24 10:40:44;;;;;;;20.88;5.35;;;10.30;99.90;;;;;;5096751;28;20040;-75
2022/11/24 10:43:11;;;;;;;33.90;6.32;;;10.30;99.90;;;;;;5089671;28;20041;-71
2022/11/24 10:45:38;;;;;;;18.85;5.85;;;10.40;99.90;;;;;;5094282;28;20025;-71
2022/11/24 10:48:15;;;;;;;30.55;6.60;;;10.40;99.90;;;;;;5089683;28;20032;-72
2022/11/24 10:50:41;;;;;;;30.10;6.40;;;10.50;99.90;;;;;;5088300;28;20063;-70
2022/11/24 10:53:07;;;;;;;19.70;6.35;;;10.50;99.90;;;;;;5084879;28;20028;-72
2022/11/24 10:55:55;;;;;;;31.10;5.95;;;10.50;99.90;;;;;;5100060;28;20036;-70
2022/11/24 10:58:33;;;;;;;25.58;5.03;;;10.60;99.90;;;;;;5095327;28;20116;-69
2022/11/24 11:01:17;;;;;;;27.73;5.57;;;10.70;99.90;;;;;;5102331;28;20064;-71
2022/11/24 11:03:52;;;;;;;27.60;5.38;;;10.80;99.90;;;;;;5097028;28;20043;-70
2022/11/24 11:06:28;;;;;;;24.30;6.00;;;11.10;99.90;;;;;;5085077;28;20783;-72
2022/11/24 11:09:06;;;;;;;18.52;4.97;;;11.20;99.90;;;;;;5088088;28;20036;-71
2022/11/24 11:11:38;;;;;;;21.17;4.72;;;11.40;99.90;;;;;;5087465;28;20032;-69
2022/11/24 11:14:09;;;;;;;16.67;4.68;;;11.50;99.90;;;;;;5095451;28;20104;-70
2022/11/24 11:16:42;;;;;;;28.05;5.63;;;11.60;99.90;;;;;;5084588;28;20048;-71
2022/11/24 11:19:36;;;;;;;25.25;5.50;;;11.60;99.90;;;;;;5099385;28;20035;-70
2022/11/24 11:22:22;;;;;;;19.45;4.78;;;11.60;99.90;;;;;;5101914;28;20028;-72
2022/11/24 11:25:21;;;;;;;13.98;4.18;;;11.70;99.90;;;;;;5104054;28;20524;-70
2022/11/24 11:27:47;;;;;;;21.50;5.72;;;11.90;99.90;;;;;;5085513;28;20064;-70
2022/11/24 11:30:22;;;;;;;21.90;5.30;;;11.80;99.90;;;;;;5090320;28;20088;-70
2022/11/24 11:32:57;;;;;;;23.35;5.07;;;11.90;99.90;;;;;;5094500;28;20087;-69
2022/11/24 11:35:28;;;;;;;24.80;4.88;;;11.90;99.90;;;;;;5083911;28;20028;-70
2022/11/24 11:38:01;;;;;;;16.33;4.68;;;11.90;99.90;;;;;;5097713;28;20051;-72
2022/11/24 11:40:29;;;;;;;18.17;5.22;;;12.00;99.90;;;;;;5085728;28;20084;-69
2022/11/24 11:42:57;;;;;;;18.63;4.63;;;12.00;99.90;;;;;;5084572;28;20025;-69
2022/11/24 11:45:36;;;;;;;19.73;4.45;;;12.00;99.90;;;;;;5082425;28;20025;-71
2022/11/24 11:48:02;;;;;;;16.10;4.78;;;11.90;99.90;;;;;;5084356;28;20070;-69
2022/11/24 11:50:44;;;;;;;12.75;4.05;;;11.90;99.90;;;;;;5086260;28;20024;-72
2022/11/24 11:53:20;;;;;;;15.13;4.22;;;11.90;99.90;;;;;;5085332;28;20119;-69
2022/11/24 11:56:13;;;;;;;12.75;4.57;;;12.00;99.90;;;;;;5084883;28;20028;-71
2022/11/24 11:59:09;;;;;;;18.15;4.80;;;12.00;99.90;;;;;;5095301;28;20027;-70
2022/11/24 12:01:59;;;;;;;15.98;4.90;;;12.20;99.90;;;;;;5097387;28;20043;-68
2022/11/24 12:04:46;;;;;;;19.25;4.97;;;12.20;99.90;;;;;;5092583;28;20075;-70
2022/11/24 12:07:33;;;;;;;19.35;4.50;;;12.10;99.90;;;;;;5083690;28;20106;-68
2022/11/24 12:10:23;;;;;;;14.00;4.40;;;12.00;99.90;;;;;;5083754;28;20062;-71
2022/11/24 12:13:07;;;;;;;21.13;5.07;;;11.70;99.90;;;;;;5083379;28;20050;-70
2022/11/24 12:15:44;;;;;;;10.52;4.68;;;11.50;99.90;;;;;;5086072;28;20029;-69
2022/11/24 12:18:41;;;;;;;19.65;5.13;;;11.30;99.90;;;;;;5090348;28;20078;-71
2022/11/24 12:21:12;;;;;;;22.40;5.15;;;11.10;99.90;;;;;;5093331;28;20405;-72
2022/11/24 12:23:47;;;;;;;22.77;5.82;;;11.00;99.90;;;;;;5083665;28;20556;-72
2022/11/24 12:26:44;;;;;;;30.73;7.38;;;10.90;99.90;;;;;;5089133;28;20037;-71
2022/11/24 12:29:38;;;;;;;17.13;6.68;;;10.80;99.90;;;;;;5084258;28;20090;-72
2022/11/24 12:32:21;;;;;;;20.80;6.30;;;10.70;99.90;;;;;;5082843;28;20033;-71
2022/11/24 12:35:05;;;;;;;27.03;6.27;;;10.70;99.90;;;;;;5093268;28;20067;-69
2022/11/24 12:37:46;;;;;;;19.73;6.88;;;10.70;99.90;;;;;;5100899;28;20020;-72
2022/11/24 12:40:57;;;;;;;18.15;6.63;;;10.60;99.90;;;;;;5082946;28;20035;-72
2022/11/24 12:43:33;;;;;;;25.95;7.53;;;10.60;99.90;;;;;;5069700;28;20044;-69
2022/11/24 12:46:26;;;;;;;20.92;7.30;;;10.60;99.90;;;;;;5088863;28;20032;-71
2022/11/24 12:49:08;;;;;;;24.42;6.88;;;10.60;99.90;;;;;;5096459;28;20041;-69
2022/11/24 12:51:44;;;;;;;28.35;7.13;;;10.70;99.90;;;;;;5086479;28;20032;-69
2022/11/24 12:54:17;;;;;;;19.73;6.72;;;10.80;99.90;;;;;;5086395;28;20679;-72
2022/11/24 12:56:46;;;;;;;23.50;6.93;;;10.90;99.90;;;;;;5095944;28;20024;-70
2022/11/24 12:59:39;;;;;;;24.20;7.18;;;11.00;99.90;;;;;;5107433;28;20040;-70
2022/11/24 13:02:36;;;;;;;16.45;5.60;;;11.10;99.90;;;;;;5105020;28;20034;-70